createdAt,value
2018-10-16T00:01:26.455Z,12.48
2018-10-16T00:03:57.059Z,12.41
2018-10-16T00:06:27.988Z,12.29
2018-10-16T00:09:07.237Z,12.22
2018-10-16T00:11:38.544Z,12.16
2018-10-16T00:14:09.175Z,12.10
2018-10-16T00:16:39.855Z,12.05
2018-10-16T00:19:10.457Z,12.01
2018-10-16T00:21:41.084Z,12.00
2018-10-16T00:24:11.748Z,12.02
2018-10-16T00:26:42.316Z,11.99
2018-10-16T00:29:12.900Z,12.00
2018-10-16T00:31:43.487Z,12.02
2018-10-16T00:34:14.097Z,12.00
2018-10-16T00:36:44.669Z,12.02
2018-10-16T00:39:16.424Z,12.04
2018-10-16T00:41:52.296Z,12.03
2018-10-16T00:44:22.915Z,12.01
2018-10-16T00:46:53.856Z,12.01
2018-10-16T00:49:24.497Z,12.00
2018-10-16T00:51:55.093Z,11.99
2018-10-16T00:54:25.698Z,11.99
2018-10-16T00:56:56.304Z,11.99
2018-10-16T00:59:26.931Z,12.00
2018-10-16T01:01:57.610Z,11.95
2018-10-16T01:04:28.254Z,11.94
2018-10-16T01:06:59.411Z,11.92
2018-10-16T01:09:30.003Z,11.84
2018-10-16T01:12:00.663Z,11.82
2018-10-16T01:14:31.528Z,11.81
2018-10-16T01:17:02.180Z,11.81
2018-10-16T01:19:33.128Z,11.83
2018-10-16T01:22:04.660Z,11.81
2018-10-16T01:24:35.299Z,11.79
2018-10-16T01:27:06.012Z,11.75
2018-10-16T01:29:36.915Z,11.71
2018-10-16T01:32:07.572Z,11.65
2018-10-16T01:34:38.192Z,11.65
2018-10-16T01:37:08.880Z,11.66
2018-10-16T01:39:39.507Z,11.60
2018-10-16T01:42:10.109Z,11.59
2018-10-16T01:44:41.016Z,11.55
2018-10-16T01:47:11.636Z,11.52
2018-10-16T01:49:42.348Z,11.49
2018-10-16T01:52:12.970Z,11.46
2018-10-16T01:54:43.586Z,11.42
2018-10-16T01:57:14.148Z,11.35
2018-10-16T01:59:45.123Z,11.29
2018-10-16T02:02:15.757Z,11.26
2018-10-16T02:04:46.584Z,11.28
2018-10-16T02:07:17.160Z,11.28
2018-10-16T02:09:47.767Z,11.28
2018-10-16T02:12:18.603Z,11.20
2018-10-16T02:14:49.537Z,11.13
2018-10-16T02:17:20.236Z,10.98
2018-10-16T02:19:50.866Z,10.89
2018-10-16T02:22:21.455Z,10.76
2018-10-16T02:24:52.040Z,10.73
2018-10-16T02:27:22.637Z,10.73
2018-10-16T02:29:53.236Z,10.77
2018-10-16T02:32:23.828Z,10.79
2018-10-16T02:34:54.414Z,10.81
2018-10-16T02:37:25.246Z,10.78
2018-10-16T02:39:55.845Z,10.79
2018-10-16T02:42:26.668Z,10.78
2018-10-16T02:44:57.296Z,10.78
2018-10-16T02:47:28.131Z,10.74
2018-10-16T02:49:58.716Z,10.73
2018-10-16T02:52:29.531Z,10.71
2018-10-16T02:55:00.140Z,10.66
2018-10-16T02:57:30.752Z,10.63
2018-10-16T03:00:01.366Z,10.61
2018-10-16T03:02:32.144Z,10.57
2018-10-16T03:05:03.025Z,10.54
2018-10-16T03:07:33.540Z,10.51
2018-10-16T03:10:04.615Z,10.49
2018-10-16T03:12:35.195Z,10.49
2018-10-16T03:15:09.804Z,10.46
2018-10-16T03:17:40.670Z,10.47
2018-10-16T03:20:12.175Z,10.46
2018-10-16T03:22:42.747Z,10.45
2018-10-16T03:25:13.630Z,10.39
2018-10-16T03:27:44.216Z,10.39
2018-10-16T03:30:14.847Z,10.40
2018-10-16T03:32:45.442Z,10.39
2018-10-16T03:35:16.043Z,10.43
2018-10-16T03:37:46.647Z,10.40
2018-10-16T03:40:17.489Z,10.40
2018-10-16T03:42:48.324Z,10.37
2018-10-16T03:45:18.934Z,10.31
2018-10-16T03:47:49.544Z,10.29
2018-10-16T03:50:20.111Z,10.23
2018-10-16T03:52:50.752Z,10.21
2018-10-16T03:55:21.327Z,10.16
2018-10-16T03:57:51.952Z,10.11
2018-10-16T04:00:22.576Z,10.10
2018-10-16T04:02:53.151Z,10.01
2018-10-16T04:05:23.795Z,9.96
2018-10-16T04:07:54.481Z,9.84
2018-10-16T04:10:25.071Z,9.81
2018-10-16T04:12:55.704Z,9.81
2018-10-16T04:15:26.574Z,9.81
2018-10-16T04:17:57.196Z,9.82
2018-10-16T04:20:27.861Z,9.84
2018-10-16T04:22:58.475Z,9.85
2018-10-16T04:25:29.271Z,9.85
2018-10-16T04:28:00.215Z,9.82
2018-10-16T04:30:30.820Z,9.78
2018-10-16T04:33:01.484Z,9.77
2018-10-16T04:35:32.047Z,9.70
2018-10-16T04:38:02.959Z,9.67
2018-10-16T04:40:33.528Z,9.62
2018-10-16T04:43:04.240Z,9.53
2018-10-16T04:45:34.890Z,9.53
2018-10-16T04:48:06.115Z,9.54
2018-10-16T04:50:36.687Z,9.50
2018-10-16T04:53:07.553Z,9.50
2018-10-16T04:55:38.092Z,9.53
2018-10-16T04:58:08.696Z,9.54
2018-10-16T05:00:39.287Z,9.55
2018-10-16T05:03:09.894Z,9.57
2018-10-16T05:05:40.843Z,9.58
2018-10-16T05:08:11.391Z,9.59
2018-10-16T05:10:42.031Z,9.58
2018-10-16T05:13:12.653Z,9.57
2018-10-16T05:15:43.574Z,9.58
2018-10-16T05:18:14.174Z,9.60
2018-10-16T05:20:44.863Z,9.61
2018-10-16T05:23:15.536Z,9.58
2018-10-16T05:25:46.598Z,9.49
2018-10-16T05:28:17.159Z,9.43
2018-10-16T05:30:47.907Z,9.40
2018-10-16T05:33:18.904Z,9.40
2018-10-16T05:35:49.496Z,9.43
2018-10-16T05:38:20.072Z,9.46
2018-10-16T05:40:50.685Z,9.44
2018-10-16T05:43:21.255Z,9.44
2018-10-16T05:45:51.840Z,9.43
2018-10-16T05:48:22.528Z,9.40
2018-10-16T05:50:53.195Z,9.41
2018-10-16T05:53:23.831Z,9.44
2018-10-16T05:56:06.275Z,9.47
2018-10-16T05:58:36.871Z,9.47
2018-10-16T06:01:07.859Z,9.46
2018-10-16T06:03:38.485Z,9.48
2018-10-16T06:06:09.276Z,9.50
2018-10-16T06:08:39.876Z,9.64
2018-10-16T06:11:10.451Z,9.76
2018-10-16T06:13:41.047Z,9.87
2018-10-16T06:16:11.465Z,10.00
2018-10-16T06:18:42.225Z,10.15
2018-10-16T06:21:12.831Z,10.30
2018-10-16T06:23:43.670Z,10.45
2018-10-16T06:26:14.276Z,10.58
2018-10-16T06:28:45.079Z,10.69
2018-10-16T06:31:15.735Z,10.82
2018-10-16T06:33:46.347Z,10.97
2018-10-16T06:36:17.167Z,11.11
2018-10-16T06:38:47.757Z,11.26
2018-10-16T06:41:18.483Z,11.40
2018-10-16T06:43:49.410Z,11.54
2018-10-16T06:46:20.528Z,11.71
2018-10-16T06:48:51.504Z,11.85
2018-10-16T06:51:22.372Z,12.00
2018-10-16T06:53:52.934Z,12.15
2018-10-16T06:56:23.523Z,12.23
2018-10-16T06:58:54.314Z,12.34
2018-10-16T07:01:24.915Z,12.44
2018-10-16T07:03:55.479Z,12.57
2018-10-16T07:06:26.132Z,12.64
2018-10-16T07:08:57.086Z,12.69
2018-10-16T07:11:27.707Z,12.81
2018-10-16T07:13:58.327Z,13.02
2018-10-16T07:16:29.051Z,13.13
2018-10-16T07:18:59.656Z,13.31
2018-10-16T07:21:30.263Z,13.52
2018-10-16T07:24:01.158Z,13.62
2018-10-16T07:26:31.863Z,13.72
2018-10-16T07:29:02.886Z,13.78
2018-10-16T07:31:33.611Z,13.95
2018-10-16T07:34:04.485Z,14.18
2018-10-16T07:36:35.233Z,14.43
2018-10-16T07:39:09.637Z,14.64
2018-10-16T07:41:40.991Z,14.76
2018-10-16T07:44:11.838Z,14.83
2018-10-16T07:46:42.428Z,14.93
2018-10-16T07:49:13.034Z,14.92
2018-10-16T07:51:43.620Z,15.07
2018-10-16T07:54:14.459Z,15.23
2018-10-16T07:56:45.072Z,15.45
2018-10-16T07:59:15.755Z,15.68
2018-10-16T08:01:46.573Z,15.76
2018-10-16T08:04:17.192Z,15.90
2018-10-16T08:06:48.099Z,16.05
2018-10-16T08:09:18.934Z,16.22
2018-10-16T08:11:50.543Z,16.39
2018-10-16T08:14:21.860Z,16.50
2018-10-16T08:16:52.460Z,16.64
2018-10-16T08:19:23.271Z,16.76
2018-10-16T08:21:53.836Z,16.89
2018-10-16T08:24:24.431Z,17.06
2018-10-16T08:26:55.064Z,17.32
2018-10-16T08:29:25.853Z,17.48
2018-10-16T08:31:56.671Z,17.67
2018-10-16T08:34:27.263Z,17.88
2018-10-16T08:36:57.940Z,18.09
2018-10-16T08:39:34.734Z,18.26
2018-10-16T08:45:28.049Z,18.35
2018-10-16T08:48:15.348Z,18.46
2018-10-16T08:51:02.716Z,18.54
2018-10-16T08:53:33.545Z,18.78
2018-10-16T08:56:04.123Z,18.97
2018-10-16T08:58:34.704Z,19.14
2018-10-16T09:01:05.810Z,19.29
2018-10-16T09:03:36.571Z,19.46
2018-10-16T09:06:07.851Z,19.60
2018-10-16T09:08:38.484Z,19.64
2018-10-16T09:11:09.044Z,19.64
2018-10-16T09:13:39.647Z,19.73
2018-10-16T09:16:10.348Z,19.86
2018-10-16T09:18:40.945Z,19.99
2018-10-16T09:21:11.524Z,19.95
2018-10-16T09:23:42.110Z,20.08
2018-10-16T09:26:13.043Z,20.25
2018-10-16T09:28:43.683Z,20.37
2018-10-16T09:31:14.234Z,20.47
2018-10-16T09:33:44.880Z,20.57
2018-10-16T09:36:15.476Z,20.66
2018-10-16T09:38:46.119Z,20.66
2018-10-16T09:41:17.190Z,20.72
2018-10-16T09:43:48.048Z,20.81
2018-10-16T09:46:18.624Z,20.85
2018-10-16T09:48:49.207Z,20.94
2018-10-16T09:51:19.851Z,21.06
2018-10-16T09:53:50.462Z,21.13
2018-10-16T09:56:21.120Z,21.22
2018-10-16T09:58:51.715Z,21.32
2018-10-16T10:01:27.538Z,21.42
2018-10-16T10:03:58.109Z,21.49
2018-10-16T10:06:28.716Z,21.57
2018-10-16T10:08:59.288Z,21.58
2018-10-16T10:11:30.135Z,21.67
2018-10-16T10:14:00.796Z,21.76
2018-10-16T10:16:31.379Z,21.81
2018-10-16T10:19:01.976Z,21.91
2018-10-16T10:21:32.599Z,21.97
2018-10-16T10:24:03.210Z,22.02
2018-10-16T10:26:33.839Z,22.12
2018-10-16T10:29:04.700Z,22.14
2018-10-16T10:31:35.511Z,22.19
2018-10-16T10:34:05.928Z,22.12
2018-10-16T10:36:36.748Z,22.17
2018-10-16T10:39:11.045Z,22.21
2018-10-16T10:41:42.189Z,22.22
2018-10-16T10:44:12.839Z,22.24
2018-10-16T10:46:43.445Z,22.35
2018-10-16T10:49:14.075Z,22.37
2018-10-16T10:51:44.678Z,22.38
2018-10-16T10:54:15.299Z,22.40
2018-10-16T10:56:45.928Z,22.40
2018-10-16T10:59:16.700Z,22.49
2018-10-16T11:01:47.302Z,22.55
2018-10-16T11:04:18.139Z,22.60
2018-10-16T11:06:48.715Z,22.68
2018-10-16T11:09:19.335Z,22.72
2018-10-16T11:11:57.060Z,22.81
2018-10-16T11:14:28.444Z,22.86
2018-10-16T11:16:59.041Z,22.93
2018-10-16T11:19:29.758Z,22.95
2018-10-16T11:22:00.461Z,22.99
2018-10-16T11:24:30.835Z,23.00
2018-10-16T11:27:01.473Z,23.03
2018-10-16T11:29:32.422Z,23.09
2018-10-16T11:32:03.035Z,23.12
2018-10-16T11:34:33.620Z,23.18
2018-10-16T11:37:04.340Z,23.20
2018-10-16T11:39:35.106Z,23.22
2018-10-16T11:42:06.232Z,23.24
2018-10-16T11:44:37.097Z,23.25
2018-10-16T11:47:07.761Z,23.34
2018-10-16T11:49:38.371Z,23.37
2018-10-16T11:52:09.271Z,23.41
2018-10-16T11:54:39.999Z,23.44
2018-10-16T11:57:10.679Z,23.42
2018-10-16T11:59:41.288Z,23.41
2018-10-16T12:02:12.025Z,23.50
2018-10-16T12:04:42.736Z,23.55
2018-10-16T12:07:13.842Z,23.51
2018-10-16T12:09:44.641Z,23.51
2018-10-16T12:12:15.479Z,23.52
2018-10-16T12:14:46.173Z,23.54
2018-10-16T12:17:38.407Z,23.56
2018-10-16T12:20:12.081Z,23.61
2018-10-16T12:22:42.744Z,23.65
2018-10-16T12:25:13.452Z,23.72
2018-10-16T12:27:43.948Z,23.71
2018-10-16T12:30:14.580Z,23.74
2018-10-16T12:32:45.195Z,23.77
2018-10-16T12:35:15.764Z,23.82
2018-10-16T12:37:46.415Z,23.85
2018-10-16T12:40:17.199Z,23.90
2018-10-16T12:42:47.940Z,23.91
2018-10-16T12:45:18.689Z,23.99
2018-10-16T12:47:49.270Z,24.08
2018-10-16T12:50:19.932Z,24.04
2018-10-16T12:52:50.784Z,24.03
2018-10-16T12:55:21.469Z,24.02
2018-10-16T12:57:52.080Z,24.03
2018-10-16T13:00:22.712Z,24.04
2018-10-16T13:02:53.350Z,24.05
2018-10-16T13:05:24.118Z,24.07
2018-10-16T13:07:54.750Z,24.07
2018-10-16T13:10:25.571Z,24.10
2018-10-16T13:12:56.403Z,24.12
2018-10-16T13:15:27.027Z,24.15
2018-10-16T13:17:57.652Z,24.15
2018-10-16T13:20:28.240Z,24.08
2018-10-16T13:22:58.970Z,24.10
2018-10-16T13:25:29.707Z,24.13
2018-10-16T13:28:00.396Z,24.16
2018-10-16T13:30:31.191Z,24.16
2018-10-16T13:33:01.808Z,24.16
2018-10-16T13:35:32.364Z,24.15
2018-10-16T13:38:03.075Z,24.12
2018-10-16T13:40:33.832Z,24.13
2018-10-16T13:43:04.528Z,24.12
2018-10-16T13:45:35.362Z,24.12
2018-10-16T13:48:06.827Z,24.11
2018-10-16T13:50:37.440Z,24.10
2018-10-16T13:53:08.295Z,24.10
2018-10-16T13:55:38.868Z,24.10
2018-10-16T13:58:09.464Z,24.10
2018-10-16T14:00:40.614Z,24.10
2018-10-16T14:03:11.226Z,24.11
2018-10-16T14:05:42.803Z,24.12
2018-10-16T14:08:13.484Z,24.12
2018-10-16T14:10:44.211Z,24.12
2018-10-16T14:13:14.849Z,24.12
2018-10-16T14:15:45.791Z,24.11
2018-10-16T14:18:16.413Z,24.11
2018-10-16T14:20:46.731Z,24.11
2018-10-16T14:23:17.316Z,24.07
2018-10-16T14:25:47.900Z,24.06
2018-10-16T14:28:18.663Z,24.05
2018-10-16T14:30:49.270Z,24.04
2018-10-16T14:33:19.859Z,24.02
2018-10-16T14:35:50.472Z,23.97
2018-10-16T14:38:21.456Z,23.95
2018-10-16T14:40:52.268Z,23.92
2018-10-16T14:43:22.920Z,23.86
2018-10-16T14:45:53.913Z,23.85
2018-10-16T14:48:24.656Z,23.84
2018-10-16T14:50:55.372Z,23.80
2018-10-16T14:53:25.980Z,23.74
2018-10-16T14:55:56.585Z,23.72
2018-10-16T14:58:27.488Z,23.66
2018-10-16T15:00:58.072Z,23.67
2018-10-16T15:03:28.714Z,23.62
2018-10-16T15:05:59.654Z,23.59
2018-10-16T15:08:30.304Z,23.56
2018-10-16T15:11:00.981Z,23.49
2018-10-16T15:13:31.560Z,23.48
2018-10-16T15:16:02.312Z,23.44
2018-10-16T15:18:33.037Z,23.40
2018-10-16T15:21:03.676Z,23.35
2018-10-16T15:23:34.381Z,23.28
2018-10-16T15:26:05.792Z,23.23
2018-10-16T15:28:36.951Z,23.19
2018-10-16T15:31:07.542Z,23.14
2018-10-16T15:33:38.284Z,23.08
2018-10-16T15:36:08.927Z,23.04
2018-10-16T15:38:39.735Z,22.98
2018-10-16T15:41:10.445Z,22.96
2018-10-16T15:43:41.189Z,22.93
2018-10-16T15:46:11.898Z,22.90
2018-10-16T15:48:42.629Z,22.85
2018-10-16T15:51:13.255Z,22.83
2018-10-16T15:53:44.095Z,22.79
2018-10-16T15:56:14.652Z,22.74
2018-10-16T15:58:45.247Z,22.71
2018-10-16T16:01:15.832Z,22.64
2018-10-16T16:03:46.429Z,22.57
2018-10-16T16:06:17.715Z,22.53
2018-10-16T16:08:48.371Z,22.48
2018-10-16T16:11:18.935Z,22.41
2018-10-16T16:13:49.552Z,22.32
2018-10-16T16:16:20.160Z,22.18
2018-10-16T16:18:50.787Z,22.06
2018-10-16T16:21:21.387Z,22.00
2018-10-16T16:23:52.083Z,21.90
2018-10-16T16:26:22.927Z,21.79
2018-10-16T16:28:53.684Z,21.74
2018-10-16T16:31:24.304Z,21.65
2018-10-16T16:33:54.964Z,21.57
2018-10-16T16:36:25.710Z,21.50
2018-10-16T16:38:56.579Z,21.43
2018-10-16T16:41:27.181Z,21.37
2018-10-16T16:43:57.964Z,21.31
2018-10-16T16:46:28.631Z,21.26
2018-10-16T16:48:59.221Z,21.19
2018-10-16T16:51:29.837Z,21.12
2018-10-16T16:54:00.757Z,21.04
2018-10-16T16:56:31.421Z,20.96
2018-10-16T16:59:02.092Z,20.89
2018-10-16T17:01:32.893Z,20.81
2018-10-16T17:04:03.589Z,20.72
2018-10-16T17:06:35.041Z,20.61
2018-10-16T17:09:10.603Z,20.55
2018-10-16T17:11:41.419Z,20.47
2018-10-16T17:14:12.296Z,20.37
2018-10-16T17:16:43.095Z,20.30
2018-10-16T17:19:13.747Z,20.21
2018-10-16T17:21:44.431Z,20.15
2018-10-16T17:24:15.079Z,20.09
2018-10-16T17:26:46.072Z,19.98
2018-10-16T17:29:16.800Z,19.90
2018-10-16T17:31:47.473Z,19.82
2018-10-16T17:34:18.544Z,19.74
2018-10-16T17:36:49.199Z,19.66
2018-10-16T17:39:19.864Z,19.58
2018-10-16T17:41:50.501Z,19.52
2018-10-16T17:44:21.152Z,19.43
2018-10-16T17:46:51.831Z,19.35
2018-10-16T17:49:22.416Z,19.26
2018-10-16T17:51:53.353Z,19.18
2018-10-16T17:54:24.029Z,19.09
2018-10-16T17:56:54.734Z,19.00
2018-10-16T17:59:25.556Z,18.86
2018-10-16T18:01:56.360Z,18.70
2018-10-16T18:04:27.288Z,18.52
2018-10-16T18:06:58.056Z,18.40
2018-10-16T18:09:28.780Z,18.24
2018-10-16T18:11:59.375Z,18.13
2018-10-16T18:14:30.099Z,18.03
2018-10-16T18:17:00.734Z,17.94
2018-10-16T18:19:31.477Z,17.87
2018-10-16T18:22:02.155Z,17.73
2018-10-16T18:24:32.801Z,17.64
2018-10-16T18:27:03.484Z,17.48
2018-10-16T18:29:34.303Z,17.37
2018-10-16T18:32:05.193Z,17.34
2018-10-16T18:34:35.928Z,17.10
2018-10-16T18:37:06.724Z,17.11
2018-10-16T18:39:37.474Z,17.11
2018-10-16T18:42:08.236Z,17.07
2018-10-16T18:44:39.118Z,17.05
2018-10-16T18:47:10.092Z,17.06
2018-10-16T18:49:40.754Z,17.08
2018-10-16T18:52:11.389Z,17.10
2018-10-16T18:54:42.257Z,17.11
2018-10-16T18:57:12.905Z,17.08
2018-10-16T18:59:43.712Z,17.07
2018-10-16T19:02:14.405Z,17.05
2018-10-16T19:04:45.320Z,17.04
2018-10-16T19:07:15.980Z,17.02
2018-10-16T19:09:46.880Z,16.99
2018-10-16T19:12:17.530Z,16.96
2018-10-16T19:14:48.165Z,16.91
2018-10-16T19:17:19.031Z,16.86
2018-10-16T19:19:49.695Z,16.80
2018-10-16T19:22:20.530Z,16.72
2018-10-16T19:24:51.040Z,16.66
2018-10-16T19:27:21.702Z,16.57
2018-10-16T19:29:52.524Z,16.47
2018-10-16T19:32:23.176Z,16.37
2018-10-16T19:34:53.875Z,16.26
2018-10-16T19:37:24.516Z,16.24
2018-10-16T19:39:55.179Z,16.19
2018-10-16T19:42:25.875Z,16.19
2018-10-16T19:44:56.509Z,16.20
2018-10-16T19:47:27.300Z,16.20
2018-10-16T19:49:57.923Z,16.18
2018-10-16T19:52:28.747Z,16.13
2018-10-16T19:54:59.376Z,16.04
2018-10-16T19:57:29.969Z,16.01
2018-10-16T20:00:00.647Z,15.98
2018-10-16T20:02:31.433Z,15.97
2018-10-16T20:05:02.191Z,15.94
2018-10-16T20:07:33.157Z,15.95
2018-10-16T20:10:03.833Z,15.93
2018-10-16T20:12:34.183Z,15.87
2018-10-16T20:15:06.356Z,15.79
2018-10-16T20:17:37.219Z,15.72
2018-10-16T20:20:09.299Z,15.62
2018-10-16T20:22:39.925Z,15.57
2018-10-16T20:25:11.086Z,15.57
2018-10-16T20:27:41.869Z,15.56
2018-10-16T20:30:12.988Z,15.59
2018-10-16T20:32:43.609Z,15.63
2018-10-16T20:35:14.440Z,15.61
2018-10-16T20:37:45.068Z,15.61
2018-10-16T20:40:15.696Z,15.57
2018-10-16T20:42:46.295Z,15.54
2018-10-16T20:45:16.939Z,15.51
2018-10-16T20:47:47.857Z,15.47
2018-10-16T20:50:21.735Z,15.45
2018-10-16T20:52:52.324Z,15.41
2018-10-16T20:55:22.915Z,15.37
2018-10-16T20:57:53.632Z,15.37
2018-10-16T21:00:24.684Z,15.33
2018-10-16T21:02:55.295Z,15.27
2018-10-16T21:05:26.098Z,15.23
2018-10-16T21:07:56.784Z,15.17
2018-10-16T21:10:27.395Z,15.15
2018-10-16T21:12:58.011Z,15.12
2018-10-16T21:15:28.799Z,15.09
2018-10-16T21:17:59.871Z,15.04
2018-10-16T21:20:30.472Z,14.98
2018-10-16T21:23:00.828Z,14.95
2018-10-16T21:25:31.628Z,14.92
2018-10-16T21:28:02.286Z,14.89
2018-10-16T21:30:33.068Z,14.83
2018-10-16T21:33:03.696Z,14.79
2018-10-16T21:35:34.284Z,14.74
2018-10-16T21:38:04.891Z,14.67
2018-10-16T21:40:35.718Z,14.61
2018-10-16T21:43:06.568Z,14.58
2018-10-16T21:45:37.410Z,14.51
2018-10-16T21:48:08.220Z,14.46
2018-10-16T21:50:38.843Z,14.43
2018-10-16T21:53:09.482Z,14.37
2018-10-16T21:55:40.286Z,14.31
2018-10-16T21:58:11.316Z,14.31
2018-10-16T22:00:47.215Z,14.27
2018-10-16T22:03:17.803Z,14.25
2018-10-16T22:05:48.651Z,14.23
2018-10-16T22:08:19.395Z,14.20
2018-10-16T22:10:50.288Z,14.19
2018-10-16T22:13:20.859Z,14.18
2018-10-16T22:15:51.483Z,14.15
2018-10-16T22:18:22.061Z,14.12
2018-10-16T22:20:52.687Z,14.02
2018-10-16T22:23:23.302Z,13.89
2018-10-16T22:25:54.106Z,13.86
2018-10-16T22:28:24.703Z,13.79
2018-10-16T22:30:55.335Z,13.70
2018-10-16T22:33:26.140Z,13.58
2018-10-16T22:35:56.534Z,13.52
2018-10-16T22:38:27.129Z,13.44
2018-10-16T22:40:57.754Z,13.43
2018-10-16T22:43:28.667Z,13.42
2018-10-16T22:45:59.237Z,13.41
2018-10-16T22:48:29.892Z,13.39
2018-10-16T22:51:00.510Z,13.35
2018-10-16T22:53:31.104Z,13.28
2018-10-16T22:56:01.701Z,13.19
2018-10-16T22:58:32.368Z,13.15
2018-10-16T23:01:03.374Z,13.17
2018-10-16T23:03:34.379Z,13.14
2018-10-16T23:06:05.525Z,13.07
2018-10-16T23:08:36.130Z,13.08
2018-10-16T23:11:06.878Z,13.07
2018-10-16T23:13:37.656Z,13.05
2018-10-16T23:16:08.577Z,13.06
2018-10-16T23:18:39.199Z,13.01
2018-10-16T23:21:11.515Z,12.93
2018-10-16T23:23:42.115Z,12.85
2018-10-16T23:26:12.735Z,12.82
2018-10-16T23:28:43.299Z,12.69
2018-10-16T23:31:13.954Z,12.69
2018-10-16T23:33:44.717Z,12.65
2018-10-16T23:36:15.863Z,12.59
2018-10-16T23:38:46.439Z,12.57
2018-10-16T23:41:17.060Z,12.57
2018-10-16T23:43:47.823Z,12.58
2018-10-16T23:46:18.430Z,12.58
2018-10-16T23:48:49.004Z,12.57
2018-10-16T23:51:19.631Z,12.57
2018-10-16T23:53:50.202Z,12.57
2018-10-16T23:56:21.034Z,12.56
2018-10-16T23:58:51.721Z,12.58
